createdAt,value
2018-04-12T00:00:03.177Z,16.10
2018-04-12T00:02:30.746Z,16.10
2018-04-12T00:04:59.053Z,16.00
2018-04-12T00:07:26.615Z,16.00
2018-04-12T00:09:54.157Z,16.10
2018-04-12T00:12:21.733Z,16.00
2018-04-12T00:14:49.282Z,15.90
2018-04-12T00:17:16.856Z,15.90
2018-04-12T00:19:44.413Z,15.90
2018-04-12T00:22:12.002Z,16.00
2018-04-12T00:24:39.554Z,16.00
2018-04-12T00:27:07.121Z,16.00
2018-04-12T00:29:34.679Z,15.90
2018-04-12T00:32:02.382Z,15.80
2018-04-12T00:34:30.701Z,15.70
2018-04-12T00:36:58.273Z,15.70
2018-04-12T00:39:25.825Z,15.80
2018-04-12T00:41:53.400Z,15.70
2018-04-12T00:44:20.941Z,15.60
2018-04-12T00:46:48.514Z,15.60
2018-04-12T00:49:16.065Z,15.50
2018-04-12T00:51:43.637Z,15.40
2018-04-12T00:54:11.217Z,15.40
2018-04-12T00:56:39.548Z,15.40
2018-04-12T00:59:07.856Z,15.30
2018-04-12T01:01:35.435Z,15.30
2018-04-12T01:04:02.989Z,15.20
2018-04-12T01:06:30.567Z,15.10
2018-04-12T01:08:58.113Z,15.00
2018-04-12T01:11:25.646Z,14.90
2018-04-12T01:13:53.213Z,14.80
2018-04-12T01:16:20.757Z,14.70
2018-04-12T01:18:48.320Z,14.60
2018-04-12T01:21:15.864Z,14.60
2018-04-12T01:23:43.436Z,14.50
2018-04-12T01:26:11.764Z,14.50
2018-04-12T01:28:39.334Z,14.40
2018-04-12T01:31:06.872Z,14.40
2018-04-12T01:33:34.430Z,14.40
2018-04-12T01:36:01.983Z,14.30
2018-04-12T01:38:29.547Z,14.20
2018-04-12T01:40:57.088Z,14.10
2018-04-12T01:43:24.652Z,14.20
2018-04-12T01:45:52.203Z,14.00
2018-04-12T01:48:20.533Z,14.00
2018-04-12T01:50:48.097Z,14.00
2018-04-12T01:53:15.666Z,14.10
2018-04-12T01:55:43.207Z,13.90
2018-04-12T01:58:10.769Z,13.80
2018-04-12T02:00:38.312Z,13.80
2018-04-12T02:03:06.155Z,13.70
2018-04-12T02:05:33.696Z,13.70
2018-04-12T02:08:02.069Z,13.60
2018-04-12T02:10:30.380Z,13.50
2018-04-12T02:12:57.954Z,13.40
2018-04-12T02:15:25.505Z,13.40
2018-04-12T02:17:53.077Z,13.50
2018-04-12T02:20:20.805Z,13.50
2018-04-12T02:22:48.401Z,13.50
2018-04-12T02:25:15.952Z,13.30
2018-04-12T02:27:43.497Z,13.20
2018-04-12T02:30:11.070Z,13.20
2018-04-12T02:32:38.625Z,13.20
2018-04-12T02:35:06.252Z,13.30
2018-04-12T02:37:33.777Z,13.20
2018-04-12T02:40:01.379Z,13.10
2018-04-12T02:42:28.940Z,13.00
2018-04-12T02:44:56.514Z,13.10
2018-04-12T02:47:24.075Z,13.00
2018-04-12T02:49:51.689Z,12.90
2018-04-12T02:52:19.241Z,12.80
2018-04-12T02:54:46.866Z,12.80
2018-04-12T02:57:14.409Z,12.70
2018-04-12T02:59:41.985Z,12.70
2018-04-12T03:02:09.533Z,12.70
2018-04-12T03:04:37.109Z,12.60
2018-04-12T03:07:04.662Z,12.60
2018-04-12T03:09:32.236Z,12.50
2018-04-12T03:11:59.786Z,12.40
2018-04-12T03:14:28.133Z,12.40
2018-04-12T03:16:55.985Z,12.30
2018-04-12T03:19:23.563Z,12.30
2018-04-12T03:21:51.113Z,12.20
2018-04-12T03:24:18.692Z,12.10
2018-04-12T03:26:46.238Z,12.10
2018-04-12T03:29:13.814Z,12.00
2018-04-12T03:31:41.357Z,12.00
2018-04-12T03:34:08.933Z,11.90
2018-04-12T03:36:36.474Z,11.90
2018-04-12T03:39:04.135Z,11.80
2018-04-12T03:41:31.709Z,11.70
2018-04-12T03:43:59.258Z,11.60
2018-04-12T03:46:26.829Z,11.40
2018-04-12T03:48:54.551Z,11.40
2018-04-12T03:51:22.128Z,11.40
2018-04-12T03:53:49.677Z,11.40
2018-04-12T03:56:17.253Z,11.40
2018-04-12T03:58:44.800Z,11.40
2018-04-12T04:01:12.378Z,11.30
2018-04-12T04:03:39.930Z,11.30
2018-04-12T04:06:07.510Z,11.30
2018-04-12T04:08:35.066Z,11.10
2018-04-12T04:11:02.642Z,11.10
2018-04-12T04:13:30.194Z,11.10
2018-04-12T04:16:09.521Z,11.10
2018-04-12T04:18:48.789Z,11.10
2018-04-12T04:21:17.919Z,10.70
2018-04-12T04:23:45.483Z,10.70
2018-04-12T04:26:13.053Z,10.70
2018-04-12T04:28:40.601Z,10.80
2018-04-12T04:31:08.177Z,10.80
2018-04-12T04:33:35.726Z,10.70
2018-04-12T04:36:03.350Z,10.70
2018-04-12T04:38:35.181Z,10.70
2018-04-12T04:41:03.109Z,10.70
2018-04-12T04:43:31.414Z,10.60
2018-04-12T04:45:59.346Z,10.60
2018-04-12T04:48:26.936Z,10.60
2018-04-12T04:50:55.183Z,10.60
2018-04-12T04:53:22.775Z,10.60
2018-04-12T04:55:50.351Z,10.50
2018-04-12T04:58:17.905Z,10.50
2018-04-12T05:00:45.489Z,10.40
2018-04-12T05:03:13.798Z,10.40
2018-04-12T05:05:41.386Z,10.40
2018-04-12T05:08:08.929Z,10.30
2018-04-12T05:10:36.477Z,10.40
2018-04-12T05:13:04.053Z,10.60
2018-04-12T05:15:31.635Z,10.50
2018-04-12T05:17:59.197Z,10.60
2018-04-12T05:20:26.755Z,10.60
2018-04-12T05:22:54.334Z,10.50
2018-04-12T05:25:22.653Z,10.40
2018-04-12T05:27:50.235Z,10.40
2018-04-12T05:30:17.784Z,10.50
2018-04-12T05:32:45.359Z,10.50
2018-04-12T05:35:12.910Z,10.50
2018-04-12T05:37:40.490Z,10.50
2018-04-12T05:40:08.056Z,10.50
2018-04-12T05:42:36.402Z,10.60
2018-04-12T05:45:04.722Z,10.60
2018-04-12T05:47:32.297Z,10.60
2018-04-12T05:49:59.893Z,10.70
2018-04-12T05:52:27.474Z,10.70
2018-04-12T05:54:55.017Z,10.80
2018-04-12T05:57:22.593Z,10.80
2018-04-12T05:59:50.143Z,10.80
2018-04-12T06:02:17.728Z,10.90
2018-04-12T06:04:46.039Z,11.10
2018-04-12T06:07:13.618Z,11.10
2018-04-12T06:09:41.174Z,11.20
2018-04-12T06:12:09.515Z,11.40
2018-04-12T06:14:37.061Z,11.40
2018-04-12T06:17:04.637Z,11.50
2018-04-12T06:19:32.184Z,11.60
2018-04-12T06:22:00.543Z,11.90
2018-04-12T06:24:28.125Z,11.90
2018-04-12T06:26:55.704Z,12.10
2018-04-12T06:29:23.254Z,12.20
2018-04-12T06:31:50.845Z,12.40
2018-04-12T06:34:18.396Z,12.60
2018-04-12T06:36:46.222Z,12.60
2018-04-12T06:39:14.565Z,12.90
2018-04-12T06:41:42.115Z,12.90
2018-04-12T06:44:10.462Z,13.50
2018-04-12T06:46:38.059Z,13.40
2018-04-12T06:49:05.610Z,13.50
2018-04-12T06:51:33.164Z,13.80
2018-04-12T06:54:01.557Z,14.00
2018-04-12T06:56:29.078Z,14.00
2018-04-12T06:58:57.268Z,14.10
2018-04-12T07:01:24.883Z,14.10
2018-04-12T07:03:52.453Z,14.10
2018-04-12T07:06:20.005Z,14.20
2018-04-12T07:08:47.674Z,14.20
2018-04-12T07:11:15.221Z,14.30
2018-04-12T07:13:42.802Z,14.40
2018-04-12T07:16:10.459Z,14.40
2018-04-12T07:18:38.029Z,14.50
2018-04-12T07:21:05.582Z,14.50
2018-04-12T07:23:33.154Z,14.60
2018-04-12T07:26:03.331Z,14.70
2018-04-12T07:28:33.566Z,14.70
2018-04-12T07:31:01.243Z,14.90
2018-04-12T07:33:28.817Z,15.00
2018-04-12T07:35:56.369Z,15.30
2018-04-12T07:38:24.004Z,15.60
2018-04-12T07:40:51.553Z,15.90
2018-04-12T07:43:19.161Z,16.30
2018-04-12T07:45:46.718Z,16.60
2018-04-12T07:48:14.269Z,16.80
2018-04-12T07:50:41.841Z,17.00
2018-04-12T07:53:09.429Z,17.10
2018-04-12T07:55:37.773Z,17.30
2018-04-12T07:58:05.321Z,17.30
2018-04-12T08:00:32.897Z,17.40
2018-04-12T08:03:00.445Z,17.40
2018-04-12T08:05:28.017Z,17.50
2018-04-12T08:07:55.561Z,17.60
2018-04-12T08:10:23.128Z,17.70
2018-04-12T08:12:51.445Z,17.80
2018-04-12T08:15:19.922Z,17.80
2018-04-12T08:17:47.475Z,17.90
2018-04-12T08:20:15.805Z,18.00
2018-04-12T08:22:43.357Z,17.90
2018-04-12T08:25:10.955Z,18.00
2018-04-12T08:27:38.512Z,18.00
2018-04-12T08:30:06.093Z,18.00
2018-04-12T08:32:34.414Z,18.00
2018-04-12T08:35:01.985Z,17.90
2018-04-12T08:37:30.510Z,17.80
2018-04-12T08:39:58.850Z,17.80
2018-04-12T08:42:26.397Z,17.80
2018-04-12T08:44:53.965Z,17.90
2018-04-12T08:47:22.284Z,17.90
2018-04-12T08:49:50.854Z,17.80
2018-04-12T08:52:19.178Z,17.80
2018-04-12T08:54:46.754Z,17.70
2018-04-12T08:57:14.379Z,17.70
2018-04-12T08:59:41.930Z,17.70
2018-04-12T09:02:09.505Z,17.70
2018-04-12T09:04:37.735Z,17.70
2018-04-12T09:07:05.466Z,17.60
2018-04-12T09:09:33.013Z,17.60
2018-04-12T09:12:00.622Z,17.60
2018-04-12T09:14:32.628Z,17.60
2018-04-12T09:17:07.346Z,17.60
2018-04-12T09:19:40.573Z,17.60
2018-04-12T09:22:08.137Z,17.50
2018-04-12T09:24:36.614Z,17.50
2018-04-12T09:27:04.191Z,17.40
2018-04-12T09:29:31.738Z,17.40
2018-04-12T09:32:00.101Z,17.40
2018-04-12T09:34:27.661Z,17.40
2018-04-12T09:36:56.373Z,17.40
2018-04-12T09:39:30.827Z,17.30
2018-04-12T09:42:06.789Z,17.30
2018-04-12T09:44:42.824Z,17.30
2018-04-12T09:47:11.168Z,17.20
2018-04-12T09:49:57.673Z,17.10
2018-04-12T09:52:25.677Z,17.20
2018-04-12T09:54:53.995Z,17.10
2018-04-12T09:57:21.601Z,17.00
2018-04-12T09:59:49.165Z,17.00
2018-04-12T10:02:16.753Z,16.90
2018-04-12T10:04:50.038Z,16.90
2018-04-12T10:07:17.630Z,16.90
2018-04-12T10:09:45.214Z,16.90
2018-04-12T10:12:12.782Z,16.90
2018-04-12T10:14:40.344Z,17.00
2018-04-12T10:17:07.917Z,17.00
2018-04-12T10:19:36.521Z,17.10
2018-04-12T10:22:04.106Z,17.10
2018-04-12T10:24:31.656Z,17.30
2018-04-12T10:26:59.207Z,17.40
2018-04-12T10:29:27.580Z,17.40
2018-04-12T10:31:55.131Z,17.60
2018-04-12T10:34:22.714Z,18.00
2018-04-12T10:36:50.270Z,18.40
2018-04-12T10:39:17.880Z,18.70
2018-04-12T10:41:46.258Z,19.50
2018-04-12T10:44:14.681Z,19.50
2018-04-12T10:46:42.285Z,20.00
2018-04-12T10:49:09.907Z,20.30
2018-04-12T10:51:37.513Z,20.60
2018-04-12T10:54:05.132Z,20.60
2018-04-12T10:56:32.682Z,20.70
2018-04-12T10:59:00.257Z,20.80
2018-04-12T11:01:27.823Z,21.00
2018-04-12T11:03:55.405Z,21.10
2018-04-12T11:06:22.962Z,21.10
2018-04-12T11:08:50.548Z,21.10
2018-04-12T11:11:18.110Z,21.00
2018-04-12T11:13:45.685Z,21.10
2018-04-12T11:16:13.250Z,21.10
2018-04-12T11:18:41.605Z,21.10
2018-04-12T11:21:09.982Z,21.00
2018-04-12T11:23:37.536Z,20.90
2018-04-12T11:26:05.119Z,20.90
2018-04-12T11:28:32.705Z,20.90
2018-04-12T11:31:00.272Z,20.90
2018-04-12T11:33:27.859Z,20.70
2018-04-12T11:35:55.437Z,20.60
2018-04-12T11:38:23.027Z,20.80
2018-04-12T11:40:50.640Z,20.90
2018-04-12T11:43:18.225Z,20.90
2018-04-12T11:45:45.783Z,20.90
2018-04-12T11:48:13.367Z,21.00
2018-04-12T11:50:40.979Z,21.00
2018-04-12T11:53:08.539Z,21.00
2018-04-12T11:55:36.159Z,21.00
2018-04-12T11:58:03.701Z,21.00
2018-04-12T12:00:31.281Z,21.10
2018-04-12T12:02:58.838Z,21.20
2018-04-12T12:05:26.965Z,21.20
2018-04-12T12:07:54.528Z,21.30
2018-04-12T12:10:22.105Z,21.30
2018-04-12T12:12:49.658Z,21.30
2018-04-12T12:15:17.226Z,21.30
2018-04-12T12:17:44.874Z,21.40
2018-04-12T12:20:12.407Z,21.30
2018-04-12T12:22:39.952Z,21.30
2018-04-12T12:25:07.532Z,21.30
2018-04-12T12:27:35.850Z,21.30
2018-04-12T12:30:03.425Z,21.30
2018-04-12T12:32:30.969Z,21.50
2018-04-12T12:34:58.537Z,21.50
2018-04-12T12:37:26.084Z,21.50
2018-04-12T12:39:53.663Z,21.50
2018-04-12T12:42:21.216Z,21.50
2018-04-12T12:44:48.790Z,21.60
2018-04-12T12:47:16.337Z,21.60
2018-04-12T12:49:43.915Z,21.60
2018-04-12T12:52:11.458Z,21.50
2018-04-12T12:54:39.025Z,21.60
2018-04-12T12:57:06.574Z,21.70
2018-04-12T12:59:34.166Z,21.80
2018-04-12T13:02:01.761Z,21.90
2018-04-12T13:04:29.314Z,21.90
2018-04-12T13:06:56.890Z,21.90
2018-04-12T13:09:24.446Z,22.00
2018-04-12T13:11:52.041Z,21.90
2018-04-12T13:14:19.584Z,21.90
2018-04-12T13:16:47.168Z,21.90
2018-04-12T13:19:14.740Z,21.90
2018-04-12T13:21:42.321Z,21.80
2018-04-12T13:24:09.877Z,21.90
2018-04-12T13:26:38.053Z,21.90
2018-04-12T13:29:05.612Z,21.90
2018-04-12T13:31:33.197Z,22.00
2018-04-12T13:34:00.764Z,22.10
2018-04-12T13:36:28.341Z,22.20
2018-04-12T13:38:55.913Z,22.30
2018-04-12T13:41:23.498Z,22.30
2018-04-12T13:43:51.064Z,22.30
2018-04-12T13:46:18.638Z,22.30
2018-04-12T13:48:46.201Z,22.40
2018-04-12T13:51:13.769Z,22.40
2018-04-12T13:53:41.321Z,22.50
2018-04-12T13:56:08.910Z,22.50
2018-04-12T13:58:36.452Z,22.50
2018-04-12T14:01:04.855Z,22.60
2018-04-12T14:03:32.405Z,22.60
2018-04-12T14:05:59.977Z,22.60
2018-04-12T14:08:27.531Z,22.60
2018-04-12T14:10:55.110Z,22.70
2018-04-12T14:13:23.432Z,22.60
2018-04-12T14:15:51.026Z,22.60
2018-04-12T14:18:18.581Z,22.50
2018-04-12T14:20:46.124Z,22.60
2018-04-12T14:23:13.705Z,22.70
2018-04-12T14:25:41.263Z,22.70
2018-04-12T14:28:08.862Z,22.60
2018-04-12T14:30:36.421Z,22.50
2018-04-12T14:33:03.997Z,22.70
2018-04-12T14:35:31.700Z,22.90
2018-04-12T14:37:59.272Z,22.80
2018-04-12T14:40:27.604Z,22.70
2018-04-12T14:42:55.177Z,22.70
2018-04-12T14:45:22.733Z,22.70
2018-04-12T14:47:50.312Z,22.70
2018-04-12T14:50:17.864Z,22.70
2018-04-12T14:52:45.725Z,22.70
2018-04-12T14:55:13.273Z,22.70
2018-04-12T14:57:40.896Z,22.60
2018-04-12T15:00:08.418Z,22.60
2018-04-12T15:02:36.000Z,22.60
2018-04-12T15:05:03.557Z,22.50
2018-04-12T15:07:31.137Z,22.40
2018-04-12T15:09:58.687Z,22.30
2018-04-12T15:12:28.339Z,22.30
2018-04-12T15:14:55.933Z,22.20
2018-04-12T15:17:23.511Z,22.00
2018-04-12T15:19:51.073Z,22.20
2018-04-12T15:22:18.646Z,22.10
2018-04-12T15:24:47.022Z,22.00
2018-04-12T15:27:14.593Z,21.90
2018-04-12T15:29:42.145Z,21.80
2018-04-12T15:32:09.740Z,21.70
2018-04-12T15:34:37.292Z,21.50
2018-04-12T15:37:04.895Z,21.40
2018-04-12T15:39:32.447Z,21.30
2018-04-12T15:42:00.022Z,21.20
2018-04-12T15:44:27.607Z,21.10
2018-04-12T15:46:55.181Z,21.00
2018-04-12T15:49:22.762Z,21.00
2018-04-12T15:51:50.309Z,20.80
2018-04-12T15:54:17.880Z,20.80
2018-04-12T15:56:45.433Z,20.70
2018-04-12T15:59:13.001Z,20.60
2018-04-12T16:01:41.319Z,20.30
2018-04-12T16:04:09.068Z,20.30
2018-04-12T16:06:36.617Z,20.30
2018-04-12T16:09:05.726Z,19.90
2018-04-12T16:11:33.268Z,19.90
2018-04-12T16:14:00.843Z,20.00
2018-04-12T16:16:28.390Z,20.00
2018-04-12T16:18:55.953Z,19.90
2018-04-12T16:21:23.510Z,19.80
2018-04-12T16:23:51.085Z,19.70
2018-04-12T16:26:18.639Z,19.60
2018-04-12T16:28:46.217Z,19.40
2018-04-12T16:31:13.771Z,19.30
2018-04-12T16:33:41.345Z,19.30
2018-04-12T16:36:08.898Z,19.10
2018-04-12T16:38:36.467Z,19.20
2018-04-12T16:41:04.012Z,19.20
2018-04-12T16:43:31.597Z,19.20
2018-04-12T16:45:59.154Z,19.20
2018-04-12T16:48:28.240Z,19.10
2018-04-12T16:50:55.802Z,19.10
2018-04-12T16:53:23.395Z,19.20
2018-04-12T16:55:50.951Z,19.20
2018-04-12T16:58:19.289Z,19.00
2018-04-12T17:00:46.836Z,19.00
2018-04-12T17:03:14.393Z,18.80
2018-04-12T17:05:41.974Z,18.80
2018-04-12T17:08:09.521Z,18.70
2018-04-12T17:10:37.479Z,18.70
2018-04-12T17:13:05.856Z,18.60
2018-04-12T17:15:33.461Z,18.60
2018-04-12T17:18:01.025Z,18.50
2018-04-12T17:20:28.608Z,18.40
2018-04-12T17:22:56.170Z,18.40
2018-04-12T17:25:23.760Z,18.20
2018-04-12T17:27:52.940Z,18.10
2018-04-12T17:30:20.518Z,17.90
2018-04-12T17:32:48.063Z,17.60
2018-04-12T17:35:25.600Z,17.60
2018-04-12T17:37:53.168Z,17.60
2018-04-12T17:40:21.584Z,17.30
2018-04-12T17:42:53.140Z,17.20
2018-04-12T17:45:20.805Z,17.40
2018-04-12T17:47:48.343Z,17.30
2018-04-12T17:50:15.921Z,17.20
2018-04-12T17:52:43.478Z,17.10
2018-04-12T17:55:11.986Z,16.80
2018-04-12T17:57:39.537Z,16.60
2018-04-12T18:00:07.140Z,16.50
2018-04-12T18:02:34.774Z,16.40
2018-04-12T18:05:02.420Z,16.40
2018-04-12T18:07:29.982Z,16.20
2018-04-12T18:09:57.617Z,16.00
2018-04-12T18:12:25.173Z,15.80
2018-04-12T18:14:52.750Z,16.10
2018-04-12T18:17:20.303Z,16.10
2018-04-12T18:19:47.848Z,15.80
2018-04-12T18:22:15.486Z,15.60
2018-04-12T18:24:43.045Z,15.30
2018-04-12T18:27:11.397Z,14.90
2018-04-12T18:29:38.953Z,14.90
2018-04-12T18:32:06.625Z,15.00
2018-04-12T18:34:34.183Z,15.00
2018-04-12T18:37:01.750Z,14.90
2018-04-12T18:39:29.307Z,14.90
2018-04-12T18:41:57.649Z,14.50
2018-04-12T18:44:25.205Z,14.50
2018-04-12T18:46:52.785Z,14.40
2018-04-12T18:49:20.329Z,14.30
2018-04-12T18:51:47.901Z,14.40
2018-04-12T18:54:15.458Z,14.30
2018-04-12T18:56:43.031Z,14.20
2018-04-12T18:59:10.593Z,14.20
2018-04-12T19:01:38.183Z,13.90
2018-04-12T19:04:05.733Z,13.60
2018-04-12T19:06:34.773Z,13.50
2018-04-12T19:09:02.325Z,13.50
2018-04-12T19:11:29.927Z,13.40
2018-04-12T19:13:58.243Z,13.30
2018-04-12T19:16:25.824Z,13.30
2018-04-12T19:18:53.382Z,13.40
2018-04-12T19:21:21.034Z,13.40
2018-04-12T19:23:48.596Z,13.20
2018-04-12T19:26:16.165Z,13.00
2018-04-12T19:28:43.713Z,13.00
2018-04-12T19:31:11.354Z,13.00
2018-04-12T19:33:38.901Z,12.90
2018-04-12T19:36:06.473Z,12.80
2018-04-12T19:38:34.844Z,12.70
2018-04-12T19:41:02.401Z,12.80
2018-04-12T19:43:30.012Z,12.70
2018-04-12T19:45:57.554Z,12.60
2018-04-12T19:48:25.129Z,12.30
2018-04-12T19:50:52.757Z,12.20
2018-04-12T19:53:21.398Z,12.20
2018-04-12T19:55:48.988Z,12.20
2018-04-12T19:58:16.561Z,12.10
2018-04-12T20:00:44.106Z,12.10
2018-04-12T20:03:11.678Z,12.10
2018-04-12T20:05:39.229Z,11.90
2018-04-12T20:08:06.802Z,11.90
2018-04-12T20:10:35.125Z,11.90
2018-04-12T20:13:02.718Z,11.90
2018-04-12T20:15:30.277Z,11.70
2018-04-12T20:17:57.858Z,11.60
2018-04-12T20:20:25.417Z,11.60
2018-04-12T20:22:53.046Z,11.70
2018-04-12T20:25:20.561Z,11.70
2018-04-12T20:27:48.137Z,11.60
2018-04-12T20:30:16.509Z,11.50
2018-04-12T20:32:44.091Z,11.40
2018-04-12T20:35:11.640Z,11.30
2018-04-12T20:37:39.217Z,11.30
2018-04-12T20:40:06.793Z,11.30
2018-04-12T20:42:34.350Z,11.30
2018-04-12T20:45:01.926Z,11.20
2018-04-12T20:47:29.481Z,11.20
2018-04-12T20:49:58.235Z,11.20
2018-04-12T20:52:25.795Z,11.20
2018-04-12T20:54:53.382Z,11.00
2018-04-12T20:57:20.933Z,11.10
2018-04-12T20:59:48.515Z,11.00
2018-04-12T21:02:16.074Z,11.00
2018-04-12T21:04:43.645Z,10.90
2018-04-12T21:07:11.197Z,10.90
2018-04-12T21:09:38.773Z,10.90
2018-04-12T21:12:06.341Z,10.80
2018-04-12T21:14:34.684Z,10.90
2018-04-12T21:17:02.228Z,10.90
2018-04-12T21:19:29.816Z,10.80
2018-04-12T21:21:57.373Z,10.80
2018-04-12T21:24:24.945Z,10.70
2018-04-12T21:26:52.497Z,10.70
2018-04-12T21:29:20.069Z,10.60
2018-04-12T21:31:48.386Z,10.60
2018-04-12T21:34:15.969Z,10.70
2018-04-12T21:36:43.539Z,10.60
2018-04-12T21:39:11.118Z,10.50
2018-04-12T21:41:38.672Z,10.50
2018-04-12T21:44:06.249Z,10.60
2018-04-12T21:46:34.573Z,10.40
2018-04-12T21:49:02.151Z,10.40
2018-04-12T21:51:29.710Z,10.40
2018-04-12T21:53:57.329Z,10.40
2018-04-12T21:56:25.888Z,10.50
2018-04-12T21:58:53.468Z,10.40
2018-04-12T22:01:21.045Z,10.30
2018-04-12T22:03:48.594Z,10.20
2018-04-12T22:06:16.254Z,10.20
2018-04-12T22:08:43.813Z,10.30
2018-04-12T22:11:11.384Z,10.30
2018-04-12T22:13:38.932Z,10.30
2018-04-12T22:16:06.590Z,10.20
2018-04-12T22:18:34.149Z,10.30
2018-04-12T22:21:01.722Z,10.20
2018-04-12T22:23:29.269Z,10.20
2018-04-12T22:25:56.846Z,10.10
2018-04-12T22:28:25.373Z,10.20
2018-04-12T22:30:53.723Z,10.10
2018-04-12T22:33:21.279Z,10.00
2018-04-12T22:35:48.854Z,10.10
2018-04-12T22:38:16.430Z,10.10
2018-04-12T22:40:44.771Z,10.10
2018-04-12T22:43:12.321Z,10.00
2018-04-12T22:45:39.898Z,10.00
2018-04-12T22:48:07.470Z,10.00
2018-04-12T22:50:35.044Z,10.00
2018-04-12T22:53:03.363Z,10.00
2018-04-12T22:55:30.933Z,9.90
2018-04-12T22:57:58.476Z,9.90
2018-04-12T23:00:26.049Z,9.90
2018-04-12T23:02:53.605Z,10.00
2018-04-12T23:05:21.148Z,9.90
2018-04-12T23:07:48.717Z,9.80
2018-04-12T23:10:16.268Z,9.90
2018-04-12T23:12:43.837Z,9.90
2018-04-12T23:15:11.376Z,9.80
2018-04-12T23:17:38.946Z,9.80
2018-04-12T23:20:06.495Z,9.80
2018-04-12T23:22:34.069Z,9.80
2018-04-12T23:25:01.612Z,9.80
2018-04-12T23:27:29.181Z,9.70
2018-04-12T23:29:56.730Z,9.80
2018-04-12T23:32:24.298Z,9.80
2018-04-12T23:34:51.845Z,9.70
2018-04-12T23:37:19.413Z,9.80
2018-04-12T23:39:46.958Z,9.80
2018-04-12T23:42:14.538Z,9.70
2018-04-12T23:44:42.085Z,9.80
2018-04-12T23:47:09.662Z,9.80
2018-04-12T23:49:37.214Z,9.70
2018-04-12T23:52:04.801Z,9.60
2018-04-12T23:54:32.353Z,9.50
2018-04-12T23:56:59.976Z,9.50
2018-04-12T23:59:27.521Z,9.40
